createdAt,value
2022-12-15T00:00:02.560Z,95.13
2022-12-15T00:02:49.746Z,94.78
2022-12-15T00:05:35.129Z,94.61
2022-12-15T00:08:30.710Z,94.58
2022-12-15T00:11:16.351Z,95.09
2022-12-15T00:14:02.363Z,94.48
2022-12-15T00:16:48.131Z,94.86
2022-12-15T00:19:35.680Z,94.78
2022-12-15T00:22:20.802Z,94.74
2022-12-15T00:25:06.458Z,94.71
2022-12-15T00:27:51.579Z,94.38
2022-12-15T00:30:37.218Z,94.90
2022-12-15T00:33:27.782Z,94.33
2022-12-15T00:36:17.851Z,94.31
2022-12-15T00:38:46.276Z,93.82
2022-12-15T00:41:15.840Z,94.18
2022-12-15T00:43:45.112Z,94.09
2022-12-15T00:46:30.660Z,94.06
2022-12-15T00:48:59.559Z,93.55
2022-12-15T00:51:46.534Z,93.67
2022-12-15T00:54:31.915Z,93.35
2022-12-15T00:57:17.228Z,93.90
2022-12-15T01:00:03.013Z,94.07
2022-12-15T01:02:48.455Z,93.76
2022-12-15T01:05:34.431Z,93.93
2022-12-15T01:08:21.322Z,93.99
2022-12-15T01:11:07.106Z,94.75
2022-12-15T01:13:52.428Z,94.81
2022-12-15T01:16:38.142Z,94.91
2022-12-15T01:19:23.675Z,94.92
2022-12-15T01:21:52.184Z,94.97
2022-12-15T01:24:21.507Z,94.35
2022-12-15T01:26:49.482Z,94.59
2022-12-15T01:29:17.822Z,94.53
2022-12-15T01:31:49.868Z,93.61
2022-12-15T01:34:20.284Z,94.15
2022-12-15T01:36:48.421Z,94.50
2022-12-15T01:39:16.929Z,94.62
2022-12-15T01:41:45.459Z,94.38
2022-12-15T01:44:21.216Z,95.33
2022-12-15T01:46:50.583Z,95.49
2022-12-15T01:49:24.725Z,95.16
2022-12-15T01:51:57.220Z,95.09
2022-12-15T01:54:29.464Z,95.65
2022-12-15T01:57:05.757Z,95.38
2022-12-15T01:59:36.914Z,95.63
2022-12-15T02:02:05.224Z,95.12
2022-12-15T02:04:35.158Z,95.22
2022-12-15T02:07:03.162Z,95.13
2022-12-15T02:09:31.450Z,94.51
2022-12-15T02:12:07.292Z,94.99
2022-12-15T02:14:52.599Z,95.26
2022-12-15T02:17:31.791Z,95.33
2022-12-15T02:20:24.980Z,95.33
2022-12-15T02:23:15.870Z,95.18
2022-12-15T02:26:11.412Z,95.46
2022-12-15T02:28:53.281Z,94.92
2022-12-15T02:31:49.792Z,94.84
2022-12-15T02:34:27.759Z,95.45
2022-12-15T02:36:59.583Z,94.73
2022-12-15T02:39:27.999Z,94.78
2022-12-15T02:41:56.070Z,94.38
2022-12-15T02:44:28.265Z,94.48
2022-12-15T02:47:21.075Z,94.52
2022-12-15T02:50:06.368Z,94.70
2022-12-15T02:52:46.075Z,95.16
2022-12-15T02:55:21.782Z,94.98
2022-12-15T02:58:00.462Z,94.70
2022-12-15T03:00:30.083Z,94.29
2022-12-15T03:03:00.090Z,94.38
2022-12-15T03:05:28.262Z,94.58
2022-12-15T03:07:56.109Z,95.15
2022-12-15T03:10:26.832Z,94.74
2022-12-15T03:12:55.986Z,95.17
2022-12-15T03:15:23.862Z,94.67
2022-12-15T03:17:52.226Z,94.31
2022-12-15T03:20:21.475Z,94.15
2022-12-15T03:22:49.794Z,94.18
2022-12-15T03:25:17.729Z,94.70
2022-12-15T03:27:47.479Z,94.25
2022-12-15T03:30:15.717Z,94.31
2022-12-15T03:32:43.660Z,93.68
2022-12-15T03:35:13.001Z,94.30
2022-12-15T03:37:42.971Z,94.00
2022-12-15T03:40:14.261Z,94.17
2022-12-15T03:42:50.649Z,93.93
2022-12-15T03:45:20.419Z,94.32
2022-12-15T03:47:49.099Z,93.83
2022-12-15T03:50:19.697Z,93.82
2022-12-15T03:52:52.043Z,93.65
2022-12-15T03:55:20.513Z,94.08
2022-12-15T03:57:48.996Z,94.22
2022-12-15T04:00:19.053Z,93.66
2022-12-15T04:02:47.469Z,93.65
2022-12-15T04:05:20.905Z,93.52
2022-12-15T04:07:50.245Z,93.63
2022-12-15T04:10:18.527Z,93.55
2022-12-15T04:12:46.947Z,93.81
2022-12-15T04:15:15.246Z,93.97
2022-12-15T04:17:43.401Z,94.13
2022-12-15T04:20:11.650Z,93.94
2022-12-15T04:22:40.991Z,93.50
2022-12-15T04:25:31.040Z,93.04
2022-12-15T04:28:18.004Z,92.89
2022-12-15T04:31:08.591Z,93.53
2022-12-15T04:33:55.304Z,92.68
2022-12-15T04:36:42.165Z,93.04
2022-12-15T04:39:27.412Z,93.31
2022-12-15T04:42:17.387Z,93.61
2022-12-15T04:45:02.665Z,94.03
2022-12-15T04:47:48.440Z,93.62
2022-12-15T04:50:33.836Z,93.46
2022-12-15T04:53:27.429Z,93.86
2022-12-15T04:56:18.266Z,94.09
2022-12-15T04:59:07.274Z,94.50
2022-12-15T05:01:53.152Z,93.54
2022-12-15T05:04:39.042Z,94.06
2022-12-15T05:07:24.614Z,94.12
2022-12-15T05:10:14.929Z,93.71
2022-12-15T05:13:00.786Z,94.13
2022-12-15T05:15:48.047Z,94.11
2022-12-15T05:18:33.343Z,93.77
2022-12-15T05:21:18.466Z,94.18
2022-12-15T05:24:03.611Z,93.47
2022-12-15T05:26:53.070Z,93.80
2022-12-15T05:29:39.024Z,93.66
2022-12-15T05:32:09.097Z,93.56
2022-12-15T05:34:37.925Z,93.03
2022-12-15T05:37:07.948Z,92.80
2022-12-15T05:39:36.820Z,93.28
2022-12-15T05:42:05.007Z,92.93
2022-12-15T05:44:32.966Z,92.70
2022-12-15T05:47:00.887Z,92.61
2022-12-15T05:49:30.219Z,93.19
2022-12-15T05:51:58.609Z,92.69
2022-12-15T05:54:26.879Z,92.51
2022-12-15T05:56:54.817Z,92.60
2022-12-15T05:59:23.150Z,93.16
2022-12-15T06:01:51.186Z,93.32
2022-12-15T06:04:19.711Z,93.11
2022-12-15T06:06:49.548Z,92.66
2022-12-15T06:09:17.642Z,92.64
2022-12-15T06:11:45.780Z,93.11
2022-12-15T06:14:14.337Z,93.28
2022-12-15T06:16:51.078Z,92.90
2022-12-15T06:19:19.464Z,92.69
2022-12-15T06:21:48.779Z,93.35
2022-12-15T06:24:16.969Z,92.85
2022-12-15T06:26:45.809Z,92.50
2022-12-15T06:29:14.459Z,92.96
2022-12-15T06:31:43.788Z,93.05
2022-12-15T06:34:14.269Z,93.29
2022-12-15T06:36:42.417Z,92.79
2022-12-15T06:39:15.698Z,92.81
2022-12-15T06:41:44.498Z,92.78
2022-12-15T06:44:17.070Z,92.23
2022-12-15T06:46:46.210Z,92.41
2022-12-15T06:49:14.934Z,92.87
2022-12-15T06:51:44.454Z,92.31
2022-12-15T06:54:14.251Z,92.79
2022-12-15T06:56:43.550Z,92.49
2022-12-15T06:59:13.301Z,93.03
2022-12-15T07:01:41.839Z,92.74
2022-12-15T07:04:11.422Z,92.44
2022-12-15T07:06:40.869Z,92.71
2022-12-15T07:09:12.717Z,92.69
2022-12-15T07:11:42.746Z,93.17
2022-12-15T07:14:11.207Z,92.60
2022-12-15T07:16:39.772Z,93.09
2022-12-15T07:19:07.630Z,93.32
2022-12-15T07:21:35.718Z,93.25
2022-12-15T07:24:04.343Z,93.14
2022-12-15T07:26:32.591Z,92.55
2022-12-15T07:29:02.065Z,92.48
2022-12-15T07:31:31.894Z,92.17
2022-12-15T07:34:00.506Z,92.15
2022-12-15T07:36:28.748Z,91.76
2022-12-15T07:39:09.526Z,91.60
2022-12-15T07:41:40.544Z,90.93
2022-12-15T07:44:10.403Z,91.89
2022-12-15T07:46:38.553Z,91.31
2022-12-15T07:49:06.807Z,91.61
2022-12-15T07:51:34.915Z,91.45
2022-12-15T07:54:02.849Z,91.45
2022-12-15T07:56:34.518Z,91.61
2022-12-15T07:59:10.809Z,91.13
2022-12-15T08:01:40.424Z,91.63
2022-12-15T08:04:09.056Z,91.94
2022-12-15T08:06:37.232Z,91.22
2022-12-15T08:09:05.117Z,91.01
2022-12-15T08:11:35.774Z,91.07
2022-12-15T08:14:07.001Z,91.34
2022-12-15T08:16:40.749Z,90.32
2022-12-15T08:19:12.770Z,90.58
2022-12-15T08:21:41.549Z,90.82
2022-12-15T08:24:09.921Z,90.65
2022-12-15T08:26:40.730Z,89.79
2022-12-15T08:29:49.395Z,90.68
2022-12-15T08:32:00.308Z,90.26
2022-12-15T08:34:29.146Z,90.61
2022-12-15T08:36:57.256Z,89.87
2022-12-15T08:39:25.377Z,89.86
2022-12-15T08:41:53.525Z,89.81
2022-12-15T08:44:30.007Z,89.20
2022-12-15T08:47:00.304Z,89.97
2022-12-15T08:49:28.517Z,89.38
2022-12-15T08:51:56.752Z,89.72
2022-12-15T08:54:25.368Z,89.72
2022-12-15T08:56:53.741Z,89.13
2022-12-15T08:59:22.358Z,88.75
2022-12-15T09:01:50.773Z,89.01
2022-12-15T09:04:20.496Z,88.01
2022-12-15T09:06:50.892Z,87.97
2022-12-15T09:09:19.462Z,87.75
2022-12-15T09:11:47.515Z,87.88
2022-12-15T09:14:15.969Z,86.96
2022-12-15T09:16:44.074Z,87.77
2022-12-15T09:19:12.096Z,86.98
2022-12-15T09:21:45.681Z,86.99
2022-12-15T09:24:24.674Z,87.13
2022-12-15T09:26:57.975Z,87.24
2022-12-15T09:29:25.991Z,86.99
2022-12-15T09:31:54.043Z,87.26
2022-12-15T09:34:22.311Z,87.28
2022-12-15T09:36:51.821Z,86.69
2022-12-15T09:39:20.256Z,86.34
2022-12-15T09:41:55.911Z,84.38
2022-12-15T09:44:26.847Z,84.53
2022-12-15T09:47:07.137Z,84.67
2022-12-15T09:49:49.708Z,85.41
2022-12-15T09:52:22.771Z,85.41
2022-12-15T09:54:51.046Z,85.59
2022-12-15T09:57:33.530Z,85.74
2022-12-15T10:00:13.241Z,85.01
2022-12-15T10:03:07.233Z,84.64
2022-12-15T10:06:06.823Z,84.08
2022-12-15T10:08:36.853Z,85.23
2022-12-15T10:11:07.681Z,83.86
2022-12-15T10:13:44.175Z,84.48
2022-12-15T10:16:21.854Z,84.25
2022-12-15T10:19:02.219Z,84.01
2022-12-15T10:21:32.483Z,84.25
2022-12-15T10:24:14.465Z,84.11
2022-12-15T10:26:44.205Z,85.03
2022-12-15T10:29:24.493Z,84.49
2022-12-15T10:31:55.491Z,85.13
2022-12-15T10:34:29.917Z,85.17
2022-12-15T10:36:58.988Z,84.84
2022-12-15T10:39:41.262Z,84.60
2022-12-15T10:42:18.199Z,85.14
2022-12-15T10:44:50.641Z,85.04
2022-12-15T10:47:22.880Z,84.14
2022-12-15T10:49:52.029Z,83.62
2022-12-15T10:52:32.767Z,83.38
2022-12-15T10:55:02.425Z,84.20
2022-12-15T10:57:32.096Z,85.31
2022-12-15T11:00:29.130Z,84.67
2022-12-15T11:02:58.576Z,84.75
2022-12-15T11:05:27.731Z,81.96
2022-12-15T11:07:58.073Z,83.10
2022-12-15T11:10:50.207Z,83.77
2022-12-15T11:13:19.107Z,83.15
2022-12-15T11:15:50.882Z,84.58
2022-12-15T11:18:32.397Z,83.29
2022-12-15T11:21:05.872Z,84.13
2022-12-15T11:23:48.914Z,84.06
2022-12-15T11:26:31.281Z,83.28
2022-12-15T11:29:03.626Z,82.81
2022-12-15T11:31:36.288Z,81.73
2022-12-15T11:34:05.413Z,82.13
2022-12-15T11:36:55.452Z,82.79
2022-12-15T11:39:36.822Z,82.10
2022-12-15T11:42:15.881Z,83.06
2022-12-15T11:44:53.226Z,83.00
2022-12-15T11:47:32.347Z,83.53
2022-12-15T11:50:16.473Z,84.06
2022-12-15T11:53:04.678Z,84.01
2022-12-15T11:55:42.206Z,84.48
2022-12-15T12:04:56.978Z,82.34
2022-12-15T12:07:42.632Z,82.90
2022-12-15T12:10:33.101Z,82.82
2022-12-15T12:13:12.871Z,83.65
2022-12-15T12:15:57.548Z,82.79
2022-12-15T12:18:41.296Z,82.66
2022-12-15T12:21:15.567Z,82.81
2022-12-15T12:23:51.960Z,82.77
2022-12-15T12:26:29.624Z,83.13
2022-12-15T12:29:13.048Z,82.88
2022-12-15T12:31:52.101Z,82.34
2022-12-15T12:34:29.072Z,82.43
2022-12-15T12:37:16.920Z,82.97
2022-12-15T12:39:47.418Z,82.65
2022-12-15T12:42:22.837Z,83.35
2022-12-15T12:44:52.007Z,82.95
2022-12-15T12:47:25.769Z,82.54
2022-12-15T12:50:01.059Z,82.96
2022-12-15T12:52:34.624Z,83.28
2022-12-15T12:55:14.523Z,82.32
2022-12-15T12:57:44.543Z,81.41
2022-12-15T13:00:21.988Z,79.82
2022-12-15T13:03:17.752Z,81.07
2022-12-15T13:05:50.404Z,81.04
2022-12-15T13:08:55.986Z,79.23
2022-12-15T13:12:20.621Z,80.16
2022-12-15T13:14:51.682Z,79.53
2022-12-15T13:17:53.042Z,80.27
2022-12-15T13:20:28.378Z,80.45
2022-12-15T13:23:25.128Z,80.43
2022-12-15T13:26:13.365Z,81.29
2022-12-15T13:28:47.083Z,81.41
2022-12-15T13:31:49.949Z,81.65
2022-12-15T13:34:30.057Z,81.77
2022-12-15T13:37:03.622Z,81.52
2022-12-15T13:40:02.494Z,80.95
2022-12-15T13:42:38.731Z,82.43
2022-12-15T13:45:41.089Z,82.05
2022-12-15T13:48:21.097Z,82.72
2022-12-15T13:50:56.515Z,82.64
2022-12-15T13:53:28.092Z,82.72
2022-12-15T13:56:08.099Z,83.30
2022-12-15T13:58:42.737Z,83.67
2022-12-15T14:04:15.682Z,84.35
2022-12-15T14:06:50.816Z,85.00
2022-12-15T14:09:26.707Z,84.81
2022-12-15T14:11:54.983Z,85.55
2022-12-15T14:14:29.434Z,85.20
2022-12-15T14:17:01.214Z,85.31
2022-12-15T14:19:39.363Z,84.94
2022-12-15T14:22:27.645Z,84.93
2022-12-15T14:25:04.958Z,84.50
2022-12-15T14:27:34.952Z,84.89
2022-12-15T14:30:24.131Z,84.55
2022-12-15T14:32:58.295Z,84.72
2022-12-15T14:35:31.301Z,84.37
2022-12-15T14:38:03.771Z,84.81
2022-12-15T14:40:37.635Z,84.75
2022-12-15T14:43:07.930Z,84.27
2022-12-15T14:45:36.533Z,84.55
2022-12-15T14:48:40.101Z,85.24
2022-12-15T14:51:01.713Z,84.08
2022-12-15T14:53:34.868Z,84.81
2022-12-15T14:56:30.392Z,84.64
2022-12-15T14:59:04.896Z,85.96
2022-12-15T15:01:37.559Z,86.16
2022-12-15T15:03:05.768Z,84.50
2022-12-15T15:03:06.971Z,82.56
2022-12-15T15:03:07.046Z,82.07
2022-12-15T15:04:07.589Z,86.00
2022-12-15T15:06:41.199Z,85.96
2022-12-15T15:09:26.618Z,86.73
2022-12-15T15:11:58.287Z,86.78
2022-12-15T15:14:30.295Z,87.30
2022-12-15T15:17:09.628Z,86.40
2022-12-15T15:19:41.009Z,86.51
2022-12-15T15:22:27.387Z,86.00
2022-12-15T15:24:57.244Z,85.80
2022-12-15T15:27:33.912Z,85.81
2022-12-15T15:30:16.859Z,86.53
2022-12-15T15:32:57.084Z,86.91
2022-12-15T15:35:31.495Z,86.70
2022-12-15T15:38:05.404Z,86.01
2022-12-15T15:40:33.437Z,85.87
2022-12-15T15:43:03.798Z,86.11
2022-12-15T15:45:32.032Z,86.76
2022-12-15T15:48:00.659Z,86.94
2022-12-15T15:50:32.753Z,87.40
2022-12-15T15:53:00.928Z,87.14
2022-12-15T15:55:39.710Z,87.20
2022-12-15T15:58:15.973Z,86.48
2022-12-15T16:09:50.379Z,87.08
2022-12-15T16:12:28.030Z,86.77
2022-12-15T16:14:59.479Z,86.73
2022-12-15T16:17:28.195Z,87.32
2022-12-15T16:19:56.508Z,86.64
2022-12-15T16:22:24.968Z,87.13
2022-12-15T16:24:53.616Z,87.10
2022-12-15T16:27:23.513Z,86.37
2022-12-15T16:29:54.230Z,86.37
2022-12-15T16:32:23.808Z,86.72
2022-12-15T16:34:53.610Z,86.45
2022-12-15T16:37:39.658Z,86.47
2022-12-15T16:40:25.310Z,86.72
2022-12-15T16:42:56.777Z,85.93
2022-12-15T16:45:27.166Z,86.47
2022-12-15T16:47:57.838Z,87.04
2022-12-15T16:50:30.760Z,86.55
2022-12-15T16:53:00.271Z,86.07
2022-12-15T16:55:31.728Z,85.63
2022-12-15T16:58:05.354Z,85.39
2022-12-15T17:00:37.435Z,86.40
2022-12-15T17:03:07.901Z,86.85
2022-12-15T17:05:37.619Z,86.44
2022-12-15T17:08:07.481Z,86.94
2022-12-15T17:10:36.235Z,87.10
2022-12-15T17:13:07.396Z,85.92
2022-12-15T17:15:36.674Z,86.35
2022-12-15T17:18:07.652Z,85.26
2022-12-15T17:20:35.531Z,85.48
2022-12-15T17:23:07.431Z,84.66
2022-12-15T17:26:18.144Z,85.20
2022-12-15T17:28:32.940Z,86.38
2022-12-15T17:31:01.024Z,85.83
2022-12-15T17:33:32.940Z,85.37
2022-12-15T17:36:02.934Z,83.44
2022-12-15T17:38:31.368Z,84.98
2022-12-15T17:40:59.445Z,84.87
2022-12-15T17:43:35.187Z,84.41
2022-12-15T17:46:04.159Z,84.26
2022-12-15T17:48:33.478Z,84.26
2022-12-15T17:51:01.462Z,85.41
2022-12-15T17:53:30.874Z,84.46
2022-12-15T17:55:58.945Z,85.08
2022-12-15T17:58:28.250Z,84.67
2022-12-15T18:00:58.055Z,85.38
2022-12-15T18:03:26.040Z,85.11
2022-12-15T18:05:55.326Z,85.97
2022-12-15T18:08:26.401Z,86.13
2022-12-15T18:10:57.387Z,84.89
2022-12-15T18:13:30.307Z,84.86
2022-12-15T18:16:02.950Z,85.79
2022-12-15T18:18:39.628Z,85.24
2022-12-15T18:21:22.503Z,86.33
2022-12-15T18:23:52.517Z,85.00
2022-12-15T18:26:33.426Z,85.17
2022-12-15T18:29:01.859Z,84.25
2022-12-15T18:31:32.934Z,84.50
2022-12-15T18:34:05.004Z,84.90
2022-12-15T18:39:29.213Z,86.02
2022-12-15T18:42:10.349Z,85.60
2022-12-15T18:44:38.201Z,86.32
2022-12-15T18:47:20.505Z,86.14
2022-12-15T18:49:48.737Z,86.02
2022-12-15T18:52:20.065Z,86.55
2022-12-15T18:54:48.498Z,86.22
2022-12-15T18:57:30.635Z,85.53
2022-12-15T19:00:00.169Z,85.90
2022-12-15T19:02:28.355Z,85.09
2022-12-15T19:04:58.274Z,83.56
2022-12-15T19:07:28.911Z,84.92
2022-12-15T19:09:56.950Z,85.08
2022-12-15T19:12:28.094Z,84.44
2022-12-15T19:14:55.909Z,84.79
2022-12-15T19:17:42.972Z,85.92
2022-12-15T19:20:34.818Z,85.03
2022-12-15T19:23:04.645Z,85.39
2022-12-15T19:25:33.590Z,84.78
2022-12-15T19:28:02.255Z,84.88
2022-12-15T19:30:40.212Z,84.72
2022-12-15T19:33:10.849Z,84.68
2022-12-15T19:35:42.352Z,85.01
2022-12-15T19:38:21.326Z,84.62
2022-12-15T19:40:53.227Z,84.88
2022-12-15T19:43:22.720Z,84.92
2022-12-15T19:45:51.912Z,85.31
2022-12-15T19:48:23.638Z,84.27
2022-12-15T19:50:55.719Z,84.00
2022-12-15T19:53:28.582Z,85.11
2022-12-15T19:56:01.823Z,85.20
2022-12-15T19:58:31.785Z,85.82
2022-12-15T20:01:03.433Z,85.55
2022-12-15T20:03:32.265Z,85.95
2022-12-15T20:06:03.108Z,85.30
2022-12-15T20:08:36.817Z,85.58
2022-12-15T20:11:05.151Z,85.41
2022-12-15T20:13:33.381Z,84.98
2022-12-15T20:16:02.055Z,85.15
2022-12-15T20:18:30.309Z,85.41
2022-12-15T20:20:59.412Z,84.59
2022-12-15T20:23:32.332Z,85.27
2022-12-15T20:26:02.246Z,85.65
2022-12-15T20:28:34.055Z,85.03
2022-12-15T20:31:03.213Z,85.71
2022-12-15T20:33:31.619Z,85.57
2022-12-15T20:36:00.259Z,85.46
2022-12-15T20:38:31.502Z,84.56
2022-12-15T20:41:03.815Z,85.68
2022-12-15T20:43:36.127Z,84.94
2022-12-15T20:46:19.104Z,85.38
2022-12-15T20:48:54.395Z,84.73
2022-12-15T20:51:27.543Z,85.02
2022-12-15T20:53:57.859Z,84.79
2022-12-15T20:56:28.066Z,84.18
2022-12-15T20:58:58.060Z,84.85
2022-12-15T21:01:28.297Z,84.17
2022-12-15T21:04:25.906Z,84.27
2022-12-15T21:06:56.793Z,84.41
2022-12-15T21:09:25.711Z,84.00
2022-12-15T21:11:55.785Z,83.91
2022-12-15T21:14:26.576Z,83.70
2022-12-15T21:16:54.499Z,83.94
2022-12-15T21:19:23.268Z,84.65
2022-12-15T21:21:55.969Z,84.89
2022-12-15T21:24:26.306Z,83.05
2022-12-15T21:27:01.515Z,83.72
2022-12-15T21:29:29.866Z,82.94
2022-12-15T21:31:57.659Z,83.83
2022-12-15T21:34:26.708Z,83.36
2022-12-15T21:36:55.644Z,84.14
2022-12-15T21:39:25.997Z,84.23
2022-12-15T21:41:57.504Z,84.29
2022-12-15T21:44:25.519Z,85.30
2022-12-15T21:46:55.615Z,85.24
2022-12-15T21:49:22.487Z,85.26
2022-12-15T21:51:53.550Z,84.63
2022-12-15T21:54:30.770Z,84.53
2022-12-15T21:57:01.307Z,83.88
2022-12-15T21:59:30.864Z,84.54
2022-12-15T22:02:00.455Z,84.87
2022-12-15T22:04:33.996Z,84.63
2022-12-15T22:07:02.209Z,83.96
2022-12-15T22:09:30.275Z,83.50
2022-12-15T22:11:58.327Z,83.92
2022-12-15T22:14:29.827Z,83.70
2022-12-15T22:16:58.722Z,83.76
2022-12-15T22:19:26.534Z,84.50
2022-12-15T22:21:54.467Z,85.02
2022-12-15T22:24:22.864Z,85.38
2022-12-15T22:26:51.190Z,85.67
2022-12-15T22:29:20.599Z,86.87
2022-12-15T22:31:50.794Z,86.66
2022-12-15T22:34:21.925Z,87.49
2022-12-15T22:36:50.898Z,86.76
2022-12-15T22:39:20.181Z,87.15
2022-12-15T22:41:50.435Z,87.35
2022-12-15T22:44:22.771Z,88.06
2022-12-15T22:46:54.224Z,88.72
2022-12-15T22:49:25.287Z,88.63
2022-12-15T22:51:53.068Z,88.88
2022-12-15T22:54:25.052Z,89.24
2022-12-15T22:56:58.359Z,89.57
2022-12-15T22:59:32.079Z,89.94
2022-12-15T23:02:03.712Z,90.48
2022-12-15T23:04:33.530Z,90.41
2022-12-15T23:07:04.758Z,90.17
2022-12-15T23:09:32.746Z,90.13
2022-12-15T23:11:59.870Z,90.23
2022-12-15T23:14:41.580Z,90.89
2022-12-15T23:17:12.309Z,91.06
2022-12-15T23:19:45.011Z,90.33
2022-12-15T23:22:12.951Z,90.61
2022-12-15T23:24:40.795Z,90.45
2022-12-15T23:27:11.326Z,90.67
2022-12-15T23:29:39.601Z,91.07
2022-12-15T23:32:07.587Z,90.24
2022-12-15T23:34:37.571Z,90.52
2022-12-15T23:37:05.857Z,90.73
2022-12-15T23:39:33.680Z,91.39
2022-12-15T23:42:01.724Z,91.02
2022-12-15T23:44:30.602Z,90.71
2022-12-15T23:46:58.574Z,90.78
2022-12-15T23:49:26.506Z,90.75
2022-12-15T23:51:56.148Z,91.04
2022-12-15T23:54:24.155Z,91.28
2022-12-15T23:56:52.156Z,91.20
2022-12-15T23:59:22.989Z,90.40
